Time;durP1;ratioP1;P1;durP2;ratioP2;P2;SDS_P1;SDS_P2;PMS_P1;PMS_P2;Temp;Humidity;BMP_temperature;BMP_pressure;BME280_temperature;BME280_humidity;BME280_pressure;Samples;Min_cycle;Max_cycle;Signal;HPM_P1;HPM_P2
2022/11/26 00:01:35;;;;;;;;;;;3.40;99.90;;;;;;5073290;28;20385;-70
2022/11/26 00:04:02;;;;;;;;;;;3.40;99.90;;;;;;5070744;28;19932;-70
2022/11/26 00:06:33;;;;;;;;;;;3.40;99.90;;;;;;5070543;28;19921;-70
2022/11/26 00:08:59;;;;;;;;;;;3.30;99.90;;;;;;5071241;28;19921;-70
2022/11/26 00:11:25;;;;;;;;;;;3.30;99.90;;;;;;5070656;28;20724;-70
2022/11/26 00:13:50;;;;;;;;;;;3.30;99.90;;;;;;5070470;28;20003;-70
2022/11/26 00:16:16;;;;;;;;;;;3.30;99.90;;;;;;5071391;28;19920;-70
2022/11/26 00:18:41;;;;;;;;;;;3.30;99.90;;;;;;5071126;28;19924;-70
2022/11/26 00:21:20;;;;;;;;;;;3.20;99.90;;;;;;5070027;28;19920;-70
2022/11/26 00:23:46;;;;;;;;;;;3.30;99.90;;;;;;5069121;28;20456;-70
2022/11/26 00:26:15;;;;;;;;;;;3.20;99.90;;;;;;5072408;28;19931;-70
2022/11/26 00:28:47;;;;;;;;;;;3.20;99.90;;;;;;5071364;28;19966;-70
2022/11/26 00:31:14;;;;;;;;;;;3.20;99.90;;;;;;5067751;28;19962;-70
2022/11/26 00:33:39;;;;;;;;;;;3.20;99.90;;;;;;5070538;28;19925;-70
2022/11/26 00:36:26;;;;;;;;;;;3.20;99.90;;;;;;5069266;28;19935;-70
2022/11/26 00:39:11;;;;;;;;;;;3.20;99.90;;;;;;5067998;28;20386;-70
2022/11/26 00:41:37;;;;;;;;;;;3.20;99.90;;;;;;5070027;28;19924;-70
2022/11/26 00:44:03;;;;;;;;;;;3.20;99.90;;;;;;5070712;28;20028;-70
2022/11/26 00:46:29;;;;;;;;;;;3.20;99.90;;;;;;5066112;28;19928;-70
2022/11/26 00:48:54;;;;;;;;;;;3.20;99.90;;;;;;5072325;28;19924;-70
2022/11/26 00:51:24;;;;;;;;;;;3.20;99.90;;;;;;5068728;28;19928;-70
2022/11/26 00:53:52;;;;;;;;;;;3.20;99.90;;;;;;5071581;28;19925;-70
2022/11/26 00:56:18;;;;;;;;;;;3.20;99.90;;;;;;5070586;28;19924;-70
2022/11/26 00:58:45;;;;;;;;;;;3.20;99.90;;;;;;5070046;28;20020;-70
2022/11/26 01:01:12;;;;;;;;;;;3.20;99.90;;;;;;5070303;28;19936;-70
2022/11/26 01:03:41;;;;;;;;;;;3.10;99.90;;;;;;5067147;28;19947;-70
2022/11/26 01:06:16;;;;;;;;;;;3.20;99.90;;;;;;5072251;28;19924;-70
2022/11/26 01:08:41;;;;;;;;;;;3.10;99.90;;;;;;5062871;28;20010;-70
2022/11/26 01:11:10;;;;;;;;;;;3.10;99.90;;;;;;5071243;28;20406;-70
2022/11/26 01:13:35;;;;;;;;;;;3.10;99.90;;;;;;5069968;28;19952;-70
2022/11/26 01:16:01;;;;;;;;;;;3.10;99.90;;;;;;5069509;28;20037;-70
2022/11/26 01:18:27;;;;;;;;;;;3.10;99.90;;;;;;5070409;28;19932;-70
2022/11/26 01:20:52;;;;;;;;;;;3.10;99.90;;;;;;5070367;28;19931;-70
2022/11/26 01:23:18;;;;;;;;;;;3.00;99.90;;;;;;5066935;28;19920;-70
2022/11/26 01:25:45;;;;;;;;;;;3.10;99.90;;;;;;5070377;28;19974;-70
2022/11/26 01:28:11;;;;;;;;;;;3.10;99.90;;;;;;5068943;28;19931;-70
2022/11/26 01:30:37;;;;;;;;;;;3.00;99.90;;;;;;5070369;28;19920;-70
2022/11/26 01:33:02;;;;;;;;;;;3.00;99.90;;;;;;5065645;28;20377;-69
2022/11/26 01:35:28;;;;;;;;;;;3.00;99.90;;;;;;5054115;28;19973;-69
2022/11/26 01:37:53;;;;;;;;;;;3.00;99.90;;;;;;5068022;28;19920;-69
2022/11/26 01:40:27;;;;;;;;;;;3.00;99.90;;;;;;5068782;28;19920;-69
2022/11/26 01:43:02;;;;;;;;;;;2.90;99.90;;;;;;5067424;28;20274;-69
2022/11/26 01:45:28;;;;;;;;;;;3.00;99.90;;;;;;5067378;28;20003;-69
2022/11/26 01:47:53;;;;;;;;;;;2.90;99.90;;;;;;5070578;28;20010;-69
2022/11/26 01:50:31;;;;;;;;;;;2.90;99.90;;;;;;5069745;28;19979;-69
2022/11/26 01:52:58;;;;;;;;;;;2.90;99.90;;;;;;5069405;28;19982;-69
2022/11/26 01:55:25;;;;;;;;;;;2.90;99.90;;;;;;5068437;28;19924;-69
2022/11/26 01:57:50;;;;;;;;;;;2.80;99.90;;;;;;5070111;28;19920;-69
2022/11/26 02:00:16;;;;;;;;;;;2.90;99.90;;;;;;5069970;28;19977;-69
2022/11/26 02:02:42;;;;;;;;;;;2.80;99.90;;;;;;5068622;28;20436;-69
2022/11/26 02:05:09;;;;;;;;;;;2.80;99.90;;;;;;5069342;28;20405;-69
2022/11/26 02:07:35;;;;;;;;;;;2.80;99.90;;;;;;5069931;28;20382;-69
2022/11/26 02:10:01;;;;;;;;;;;2.80;99.90;;;;;;5053275;28;19928;-69
2022/11/26 02:12:26;;;;;;;;;;;2.70;99.90;;;;;;5069341;28;19924;-69
2022/11/26 02:14:52;;;;;;;;;;;2.70;99.90;;;;;;5067804;28;19924;-69
2022/11/26 02:17:18;;;;;;;;;;;2.70;99.90;;;;;;5070709;28;20452;-69
2022/11/26 02:20:15;;;;;;;;;;;2.70;99.90;;;;;;5053913;28;19925;-69
2022/11/26 02:22:59;;;;;;;;;;;2.70;99.90;;;;;;5059712;28;20362;-69
2022/11/26 02:25:38;;;;;;;;;;;2.70;99.90;;;;;;5067592;28;19924;-69
2022/11/26 02:28:23;;;;;;;;;;;2.70;99.90;;;;;;5068941;28;19925;-69
2022/11/26 02:30:55;;;;;;;;;;;2.60;99.90;;;;;;5069074;28;20419;-69
2022/11/26 02:33:25;;;;;;;;;;;2.60;99.90;;;;;;5067150;28;19920;-69
2022/11/26 02:35:59;;;;;;;;;;;2.60;99.90;;;;;;5066002;28;19920;-69
2022/11/26 02:38:29;;;;;;;;;;;2.60;99.90;;;;;;5067869;28;20017;-69
2022/11/26 02:40:54;;;;;;;;;;;2.60;99.90;;;;;;5069136;28;19931;-70
2022/11/26 02:43:20;;;;;;;;;;;2.60;99.90;;;;;;5062627;28;20058;-70
2022/11/26 02:45:52;;;;;;;;;;;2.60;99.90;;;;;;5068754;28;20035;-69
2022/11/26 02:48:20;;;;;;;;;;;2.60;99.90;;;;;;5065787;28;19974;-69
2022/11/26 02:50:48;;;;;;;;;;;2.60;99.90;;;;;;5065431;28;19928;-69
2022/11/26 02:53:15;;;;;;;;;;;2.50;99.90;;;;;;5068358;28;19925;-69
2022/11/26 02:55:43;;;;;;;;;;;2.60;99.90;;;;;;5069690;28;19947;-69
2022/11/26 02:58:08;;;;;;;;;;;2.60;99.90;;;;;;5054169;28;19921;-69
2022/11/26 03:00:36;;;;;;;;;;;2.60;99.90;;;;;;5067851;28;19929;-69
2022/11/26 03:03:07;;;;;;;;;;;2.60;99.90;;;;;;5072305;28;19968;-69
2022/11/26 03:05:34;;;;;;;;;;;2.50;99.90;;;;;;5074541;28;19920;-69
2022/11/26 03:08:01;;;;;;;;;;;2.50;99.90;;;;;;5073112;28;19921;-69
2022/11/26 03:10:28;;;;;;;;;;;2.60;99.90;;;;;;5073193;28;19925;-69
2022/11/26 03:12:54;;;;;;;;;;;2.60;99.90;;;;;;5075808;28;19927;-69
2022/11/26 03:15:19;;;;;;;;;;;2.50;99.90;;;;;;5059365;28;20007;-69
2022/11/26 03:17:45;;;;;;;;;;;2.60;99.90;;;;;;5076438;28;19978;-69
2022/11/26 03:20:10;;;;;;;;;;;2.60;99.90;;;;;;5075564;28;20370;-69
2022/11/26 03:22:36;;;;;;;;;;;2.60;99.90;;;;;;5057123;28;19925;-69
2022/11/26 03:25:02;;;;;;;;;;;2.60;99.90;;;;;;5067039;28;20011;-69
2022/11/26 03:27:27;;;;;;;;;;;2.50;99.90;;;;;;5074270;28;19931;-69
2022/11/26 03:29:53;;;;;;;;;;;2.50;99.90;;;;;;5076204;28;19925;-69
2022/11/26 03:32:18;;;;;;;;;;;2.50;99.90;;;;;;5074597;28;19931;-69
2022/11/26 03:34:44;;;;;;;;;;;2.50;99.90;;;;;;5075779;28;19928;-69
2022/11/26 03:37:09;;;;;;;;;;;2.50;99.90;;;;;;5073794;28;20274;-69
2022/11/26 03:39:35;;;;;;;;;;;2.50;99.90;;;;;;5073670;28;20327;-69
2022/11/26 03:42:00;;;;;;;;;;;2.50;99.90;;;;;;5073134;28;19928;-69
2022/11/26 03:44:26;;;;;;;;;;;2.50;99.90;;;;;;5071098;28;20386;-69
2022/11/26 03:46:51;;;;;;;;;;;2.50;99.90;;;;;;5073717;28;19927;-69
2022/11/26 03:49:17;;;;;;;;;;;2.50;99.90;;;;;;5074717;28;19920;-69
2022/11/26 03:51:42;;;;;;;;;;;2.50;99.90;;;;;;5071244;28;21396;-69
2022/11/26 03:54:07;;;;;;;;;;;2.40;99.90;;;;;;5073131;28;19932;-69
2022/11/26 03:56:33;;;;;;;;;;;2.40;99.90;;;;;;5074395;28;19924;-69
2022/11/26 03:58:58;;;;;;;;;;;2.40;99.90;;;;;;5062161;28;19935;-69
2022/11/26 04:01:24;;;;;;;;;;;2.40;99.90;;;;;;5070641;28;20394;-69
2022/11/26 04:03:50;;;;;;;;;;;2.40;99.90;;;;;;5073145;28;19921;-69
2022/11/26 04:06:15;;;;;;;;;;;2.40;99.90;;;;;;5066950;28;20010;-69
2022/11/26 04:08:41;;;;;;;;;;;2.40;99.90;;;;;;5073213;28;19963;-69
2022/11/26 04:11:07;;;;;;;;;;;2.40;99.90;;;;;;5069007;28;19921;-69
2022/11/26 04:13:32;;;;;;;;;;;2.30;99.90;;;;;;5065522;28;19929;-69
2022/11/26 04:15:58;;;;;;;;;;;2.30;99.90;;;;;;5072171;28;19928;-69
2022/11/26 04:18:23;;;;;;;;;;;2.30;99.90;;;;;;5071630;28;19931;-69
2022/11/26 04:20:49;;;;;;;;;;;2.30;99.90;;;;;;5054317;28;20301;-69
2022/11/26 04:23:14;;;;;;;;;;;2.30;99.90;;;;;;5063799;28;20385;-69
2022/11/26 04:25:40;;;;;;;;;;;2.30;99.90;;;;;;5074309;28;19963;-69
2022/11/26 04:28:05;;;;;;;;;;;2.30;99.90;;;;;;5067817;28;19928;-69
2022/11/26 04:30:30;;;;;;;;;;;2.30;99.90;;;;;;5068790;28;20362;-69
2022/11/26 04:32:56;;;;;;;;;;;2.30;99.90;;;;;;5071594;28;19921;-69
2022/11/26 04:35:21;;;;;;;;;;;2.20;99.90;;;;;;5071926;28;19931;-70
2022/11/26 04:37:47;;;;;;;;;;;2.30;99.90;;;;;;5070488;28;20320;-69
2022/11/26 04:40:12;;;;;;;;;;;2.20;99.90;;;;;;5066797;28;20420;-69
2022/11/26 04:42:38;;;;;;;;;;;2.20;99.90;;;;;;5068841;28;20015;-69
2022/11/26 04:45:04;;;;;;;;;;;2.20;99.90;;;;;;5069510;28;20316;-69
2022/11/26 04:47:30;;;;;;;;;;;2.20;99.90;;;;;;5063415;28;19920;-69
2022/11/26 04:49:55;;;;;;;;;;;2.20;99.90;;;;;;5069904;28;19928;-69
2022/11/26 04:52:21;;;;;;;;;;;2.20;99.90;;;;;;5063637;28;19943;-69
2022/11/26 04:54:46;;;;;;;;;;;2.20;99.90;;;;;;5068001;28;20019;-69
2022/11/26 04:57:12;;;;;;;;;;;2.20;99.90;;;;;;5054468;28;19924;-69
2022/11/26 04:59:37;;;;;;;;;;;2.20;99.90;;;;;;5068514;28;19931;-69
2022/11/26 05:02:02;;;;;;;;;;;2.20;99.90;;;;;;5069330;28;19927;-69
2022/11/26 05:04:28;;;;;;;;;;;2.20;99.90;;;;;;5064281;28;19921;-69
2022/11/26 05:06:54;;;;;;;;;;;2.20;99.90;;;;;;5066167;28;19998;-69
2022/11/26 05:09:19;;;;;;;;;;;2.20;99.90;;;;;;5065509;28;19920;-69
2022/11/26 05:11:45;;;;;;;;;;;2.20;99.90;;;;;;5070165;28;20431;-69
2022/11/26 05:14:10;;;;;;;;;;;2.20;99.90;;;;;;5069593;28;19935;-69
2022/11/26 05:16:36;;;;;;;;;;;2.20;99.90;;;;;;5070435;28;19924;-69
2022/11/26 05:19:01;;;;;;;;;;;2.20;99.90;;;;;;5066092;28;20354;-69
2022/11/26 05:21:27;;;;;;;;;;;2.20;99.90;;;;;;5066667;28;20580;-69
2022/11/26 05:23:52;;;;;;;;;;;2.20;99.90;;;;;;5070301;28;19920;-69
2022/11/26 05:26:18;;;;;;;;;;;2.20;99.90;;;;;;5066025;28;19974;-69
2022/11/26 05:28:43;;;;;;;;;;;2.10;99.90;;;;;;5070875;28;20401;-69
2022/11/26 05:31:09;;;;;;;;;;;2.10;99.90;;;;;;5068922;28;19999;-69
2022/11/26 05:33:34;;;;;;;;;;;2.20;99.90;;;;;;5068931;28;19928;-69
2022/11/26 05:36:00;;;;;;;;;;;2.20;99.90;;;;;;5070412;28;19924;-69
2022/11/26 05:38:25;;;;;;;;;;;2.20;99.90;;;;;;5061952;28;20369;-69
2022/11/26 05:40:51;;;;;;;;;;;2.20;99.90;;;;;;5066792;28;20003;-69
2022/11/26 05:43:17;;;;;;;;;;;2.20;99.90;;;;;;5069157;28;19920;-69
2022/11/26 05:45:42;;;;;;;;;;;2.10;99.90;;;;;;5072460;28;20397;-69
2022/11/26 05:48:07;;;;;;;;;;;2.20;99.90;;;;;;5070724;28;19958;-69
2022/11/26 05:50:33;;;;;;;;;;;2.20;99.90;;;;;;5064413;28;20027;-69
2022/11/26 05:52:58;;;;;;;;;;;2.10;99.90;;;;;;5070075;28;19928;-69
2022/11/26 05:55:24;;;;;;;;;;;2.20;99.90;;;;;;5068506;28;19928;-69
2022/11/26 05:57:49;;;;;;;;;;;2.20;99.90;;;;;;5070520;28;19924;-69
2022/11/26 06:00:15;;;;;;;;;;;2.20;99.90;;;;;;5068326;28;19967;-69
2022/11/26 06:02:41;;;;;;;;;;;2.20;99.90;;;;;;5069435;28;19947;-69
2022/11/26 06:05:07;;;;;;;;;;;2.20;99.90;;;;;;5062719;28;19982;-69
2022/11/26 06:07:32;;;;;;;;;;;2.20;99.90;;;;;;5069097;28;19985;-69
2022/11/26 06:09:57;;;;;;;;;;;2.20;99.90;;;;;;5068300;28;19924;-69
2022/11/26 06:12:23;;;;;;;;;;;2.30;99.90;;;;;;5071071;28;19997;-69
2022/11/26 06:14:48;;;;;;;;;;;2.30;99.90;;;;;;5069363;28;19946;-69
2022/11/26 06:17:14;;;;;;;;;;;2.30;99.90;;;;;;5067302;28;20009;-70
2022/11/26 06:19:39;;;;;;;;;;;2.30;99.90;;;;;;5051749;28;20329;-69
2022/11/26 06:22:05;;;;;;;;;;;2.30;99.90;;;;;;5069697;28;19920;-69
2022/11/26 06:24:30;;;;;;;;;;;2.30;99.90;;;;;;5070160;28;20340;-69
2022/11/26 06:26:56;;;;;;;;;;;2.30;99.90;;;;;;5068131;28;19990;-69
2022/11/26 06:29:21;;;;;;;;;;;2.30;99.90;;;;;;5068452;28;19927;-69
2022/11/26 06:31:47;;;;;;;;;;;2.30;99.90;;;;;;5067826;28;19924;-69
2022/11/26 06:34:14;;;;;;;;;;;2.30;99.90;;;;;;5070982;28;19924;-69
2022/11/26 06:36:39;;;;;;;;;;;2.30;99.90;;;;;;5067020;28;19924;-69
2022/11/26 06:39:05;;;;;;;;;;;2.30;99.90;;;;;;5063671;28;19973;-69
2022/11/26 06:41:30;;;;;;;;;;;2.30;99.90;;;;;;5067363;28;20003;-69
2022/11/26 06:43:57;;;;;;;;;;;2.30;99.90;;;;;;5067915;28;20681;-69
2022/11/26 06:46:23;;;;;;;;;;;2.30;99.90;;;;;;5045883;28;19921;-69
2022/11/26 06:48:48;;;;;;;;;;;2.30;99.90;;;;;;5066582;28;19928;-69
2022/11/26 06:51:14;;;;;;;;;;;2.30;99.90;;;;;;5070830;28;20003;-69
2022/11/26 06:53:40;;;;;;;;;;;2.30;99.90;;;;;;5070593;28;19935;-69
2022/11/26 06:56:08;;;;;;;;;;;2.40;99.90;;;;;;5052514;28;20011;-69
2022/11/26 06:58:34;;;;;;;;;;;2.40;99.90;;;;;;5050531;28;19928;-69
2022/11/26 07:00:59;;;;;;;;;;;2.40;99.90;;;;;;5065502;28;19986;-69
2022/11/26 07:03:25;;;;;;;;;;;2.50;99.90;;;;;;5067829;28;19924;-69
2022/11/26 07:05:50;;;;;;;;;;;2.50;99.90;;;;;;5067404;28;19927;-69
2022/11/26 07:08:16;;;;;;;;;;;2.50;99.90;;;;;;5068709;28;20294;-69
2022/11/26 07:10:42;;;;;;;;;;;2.60;99.90;;;;;;5069701;28;19966;-68
2022/11/26 07:13:07;;;;;;;;;;;2.60;99.90;;;;;;5068390;28;19924;-69
2022/11/26 07:15:32;;;;;;;;;;;2.60;99.90;;;;;;5068643;28;19924;-69
2022/11/26 07:17:58;;;;;;;;;;;2.60;99.90;;;;;;5068235;28;19959;-69
2022/11/26 07:20:24;;;;;;;;;;;2.70;99.90;;;;;;5065864;28;19932;-69
2022/11/26 07:22:49;;;;;;;;;;;2.70;99.90;;;;;;5063625;28;19921;-69
2022/11/26 07:25:16;;;;;;;;;;;2.70;99.90;;;;;;5066857;28;20545;-69
2022/11/26 07:27:41;;;;;;;;;;;2.80;99.90;;;;;;5067526;28;19939;-69
2022/11/26 07:30:07;;;;;;;;;;;2.80;99.90;;;;;;5069295;28;19924;-69
2022/11/26 07:32:33;;;;;;;;;;;2.80;99.90;;;;;;5069931;28;19997;-69
2022/11/26 07:35:00;;;;;;;;;;;2.90;99.90;;;;;;5068017;28;20027;-69
2022/11/26 07:37:26;;;;;;;;;;;2.90;99.90;;;;;;5066051;28;19928;-69
2022/11/26 07:39:51;;;;;;;;;;;2.90;99.90;;;;;;5069957;28;20019;-69
2022/11/26 07:42:17;;;;;;;;;;;2.90;99.90;;;;;;5065554;28;20371;-69
2022/11/26 07:44:42;;;;;;;;;;;3.00;99.90;;;;;;5066435;28;19920;-69
2022/11/26 07:47:08;;;;;;;;;;;3.00;99.90;;;;;;5067436;28;20003;-69
2022/11/26 07:49:33;;;;;;;;;;;3.10;99.90;;;;;;5053429;28;20279;-69
2022/11/26 07:51:58;;;;;;;;;;;3.10;99.90;;;;;;5055239;28;19930;-69
2022/11/26 07:54:24;;;;;;;;;;;3.10;99.90;;;;;;5072077;28;20033;-69
2022/11/26 07:56:49;;;;;;;;;;;3.20;99.90;;;;;;5069578;28;19920;-69
2022/11/26 07:59:15;;;;;;;;;;;3.30;99.90;;;;;;5068586;28;19925;-69
2022/11/26 08:01:40;;;;;;;;;;;3.30;99.90;;;;;;5071702;28;19920;-69
2022/11/26 08:04:06;;;;;;;;;;;3.40;99.90;;;;;;5071977;28;20431;-69
2022/11/26 08:06:32;;;;;;;;;;;3.50;99.90;;;;;;5062283;28;19928;-69
2022/11/26 08:08:57;;;;;;;;;;;3.60;99.90;;;;;;5054880;28;19928;-69
2022/11/26 08:11:24;;;;;;;;;;;3.60;99.90;;;;;;5072868;28;19924;-69
2022/11/26 08:13:54;;;;;;;;;;;3.70;99.90;;;;;;5074390;28;19970;-69
2022/11/26 08:16:19;;;;;;;;;;;3.70;99.90;;;;;;5072999;28;19928;-69
2022/11/26 08:18:45;;;;;;;;;;;3.80;99.90;;;;;;5071669;28;19933;-69
2022/11/26 08:21:10;;;;;;;;;;;3.80;99.90;;;;;;5064871;28;20270;-69
2022/11/26 08:23:36;;;;;;;;;;;3.90;99.90;;;;;;5069089;28;19928;-69
2022/11/26 08:26:08;;;;;;;;;;;3.90;99.90;;;;;;5062070;28;19921;-69
2022/11/26 08:28:34;;;;;;;;;;;4.00;99.90;;;;;;5070848;28;19998;-70
2022/11/26 08:31:01;;;;;;;;;;;4.00;99.90;;;;;;5071626;28;19924;-70
2022/11/26 08:33:26;;;;;;;;;;;4.10;99.90;;;;;;5053936;28;19927;-70
2022/11/26 08:35:55;;;;;;;;;;;4.10;99.90;;;;;;5062490;28;19924;-70
2022/11/26 08:38:21;;;;;;;;;;;4.10;99.90;;;;;;5065882;28;19925;-69
2022/11/26 08:40:47;;;;;;;;;;;4.10;99.90;;;;;;5050393;28;19927;-70
2022/11/26 08:43:12;;;;;;;;;;;4.20;99.90;;;;;;5066778;28;19975;-70
2022/11/26 08:45:38;;;;;;;;;;;4.20;99.90;;;;;;5048056;28;19966;-70
2022/11/26 08:48:03;;;;;;;;;;;4.30;99.90;;;;;;5052738;28;19920;-69
2022/11/26 08:50:29;;;;;;;;;;;4.30;99.90;;;;;;5069081;28;19928;-70
2022/11/26 08:52:54;;;;;;;;;;;4.40;99.90;;;;;;5069691;28;20514;-69
2022/11/26 08:55:20;;;;;;;;;;;4.50;99.90;;;;;;5070426;28;19925;-69
2022/11/26 08:57:46;;;;;;;;;;;4.60;99.90;;;;;;5071531;28;20285;-70
2022/11/26 09:00:11;;;;;;;;;;;4.60;99.90;;;;;;5068827;28;19924;-69
2022/11/26 09:02:37;;;;;;;;;;;4.70;99.90;;;;;;5068374;28;19920;-69
2022/11/26 09:05:02;;;;;;;;;;;4.80;99.90;;;;;;5053884;28;20408;-70
2022/11/26 09:07:28;;;;;;;;;;;4.90;99.90;;;;;;5072678;28;19927;-69
2022/11/26 09:09:53;;;;;;;;;;;5.00;99.90;;;;;;5073583;28;19924;-70
2022/11/26 09:12:19;;;;;;;;;;;5.00;99.90;;;;;;5070923;28;19970;-70
2022/11/26 09:14:45;;;;;;;;;;;5.10;99.90;;;;;;5071932;28;20042;-70
2022/11/26 09:17:10;;;;;;;;;;;5.10;99.90;;;;;;5073048;28;20593;-70
2022/11/26 09:19:36;;;;;;;;;;;5.20;99.90;;;;;;5060785;28;19925;-70
2022/11/26 09:22:02;;;;;;;;;;;5.20;99.90;;;;;;5066706;28;19974;-70
2022/11/26 09:24:27;;;;;;;;;;;5.30;99.90;;;;;;5073331;28;19924;-70
2022/11/26 09:26:53;;;;;;;;;;;5.40;99.90;;;;;;5071785;28;20331;-70
2022/11/26 09:29:20;;;;;;;;;;;5.40;99.90;;;;;;5069735;28;19929;-70
2022/11/26 09:31:45;;;;;;;;;;;5.40;99.90;;;;;;5053776;28;19931;-70
2022/11/26 09:34:11;;;;;;;;;;;5.50;99.90;;;;;;5069869;28;20011;-70
2022/11/26 09:36:37;;;;;;;;;;;5.60;99.90;;;;;;5070304;28;19931;-70
2022/11/26 09:39:03;;;;;;;;;;;5.60;99.90;;;;;;5052937;28;19928;-70
2022/11/26 09:41:47;;;;;;;;;;;5.70;99.90;;;;;;5066202;28;19921;-70
2022/11/26 09:44:31;;;;;;;;;;;5.70;99.90;;;;;;5066741;28;20011;-70
2022/11/26 09:46:57;;;;;;;;;;;5.70;99.90;;;;;;5066545;28;19929;-70
2022/11/26 09:49:23;;;;;;;;;;;5.80;99.90;;;;;;5070283;28;19966;-70
2022/11/26 09:51:51;;;;;;;;;;;5.80;99.90;;;;;;5064630;28;19928;-70
2022/11/26 09:54:18;;;;;;;;;;;5.90;99.90;;;;;;5063506;28;19932;-70
2022/11/26 09:56:45;;;;;;;;;;;5.90;99.90;;;;;;5069382;28;19947;-70
2022/11/26 09:59:16;;;;;;;;;;;6.00;99.90;;;;;;5071401;28;19975;-69
2022/11/26 10:01:41;;;;;;;;;;;6.00;99.90;;;;;;5074421;28;20003;-70
2022/11/26 10:04:18;;;;;;;;;;;6.10;99.90;;;;;;5063639;28;20023;-70
2022/11/26 10:06:50;;;;;;;;;;;6.20;99.90;;;;;;5064753;28;19920;-70
2022/11/26 10:09:16;;;;;;;;;;;6.30;99.90;;;;;;5074361;22;19924;-67
2022/11/26 10:11:46;;;;;;;;;;;6.30;99.90;;;;;;5072438;28;19931;-67
2022/11/26 10:14:12;;;;;;;;;;;6.40;99.90;;;;;;5069013;28;19921;-67
2022/11/26 10:16:37;;;;;;;;;;;6.40;99.90;;;;;;5070230;28;19931;-67
2022/11/26 10:19:06;;;;;;;;;;;6.50;99.90;;;;;;5068146;28;19928;-68
2022/11/26 10:21:47;;;;;;;;;;;6.50;99.90;;;;;;5068632;28;19928;-68
2022/11/26 10:24:28;;;;;;;;;;;6.50;99.90;;;;;;5064251;28;19946;-68
2022/11/26 10:26:54;;;;;;;;;;;6.60;99.90;;;;;;5063229;28;19926;-68
2022/11/26 10:29:25;;;;;;;;;;;6.70;99.90;;;;;;5064307;28;19924;-67
2022/11/26 10:31:59;;;;;;;;;;;6.80;99.90;;;;;;5067574;28;19967;-67
2022/11/26 10:34:29;;;;;;;;;;;6.80;99.90;;;;;;5064343;28;19927;-67
2022/11/26 10:36:55;;;;;;;;;;;6.90;99.90;;;;;;5063524;28;19921;-67
2022/11/26 10:39:20;;;;;;;;;;;7.00;99.90;;;;;;5067132;28;19925;-67
2022/11/26 10:41:46;;;;;;;;;;;7.10;99.90;;;;;;5066049;28;19928;-67
2022/11/26 10:44:32;;;;;;;;;;;7.20;99.90;;;;;;5073902;28;19924;-67
2022/11/26 10:46:58;;;;;;;;;;;7.20;99.90;;;;;;5063599;28;19927;-67
2022/11/26 10:49:25;;;;;;;;;;;7.30;99.90;;;;;;5050113;28;19924;-68
2022/11/26 10:51:59;;;;;;;;;;;7.30;99.90;;;;;;5069850;28;19928;-67
2022/11/26 10:54:35;;;;;;;;;;;7.40;99.90;;;;;;5051609;28;19924;-67
2022/11/26 10:57:03;;;;;;;;;;;7.40;99.90;;;;;;5070616;28;19924;-68
2022/11/26 10:59:35;;;;;;;;;;;7.50;99.90;;;;;;5067488;28;19928;-68
2022/11/26 11:02:16;;;;;;;;;;;7.50;99.90;;;;;;5068761;28;19927;-68
2022/11/26 11:04:43;;;;;;;;;;;7.60;99.90;;;;;;5069898;28;20004;-68
2022/11/26 11:07:28;;;;;;;;;;;7.60;99.90;;;;;;5068007;28;19927;-68
2022/11/26 11:10:00;;;;;;;;;;;7.60;99.90;;;;;;5066507;28;19920;-68
2022/11/26 11:12:26;;;;;;;;;;;7.70;99.90;;;;;;5064797;28;20387;-68
2022/11/26 11:14:52;;;;;;;;;;;7.70;99.90;;;;;;5082250;28;19936;-68
2022/11/26 11:17:28;;;;;;;;;;;7.80;99.90;;;;;;5065735;28;19924;-68
2022/11/26 11:19:55;;;;;;;;;;;7.80;99.90;;;;;;5058542;28;19925;-68
2022/11/26 11:22:21;;;;;;;;;;;7.80;99.90;;;;;;5069429;28;19999;-68
2022/11/26 11:24:46;;;;;;;;;;;7.80;99.90;;;;;;5068712;28;19928;-68
2022/11/26 11:27:26;;;;;;;;;;;7.90;99.90;;;;;;5073347;28;20436;-68
2022/11/26 11:29:51;;;;;;;;;;;7.90;99.90;;;;;;5074134;28;20328;-68
2022/11/26 11:32:30;;;;;;;;;;;7.90;99.90;;;;;;5073485;28;19931;-68
2022/11/26 11:35:09;;;;;;;;;;;7.90;99.90;;;;;;5063611;28;19928;-68
2022/11/26 11:37:45;;;;;;;;;;;7.90;99.90;;;;;;5066872;28;19931;-68
2022/11/26 11:40:17;;;;;;;;;;;8.00;99.90;;;;;;5070252;28;19924;-68
2022/11/26 11:42:48;;;;;;;;;;;8.00;99.90;;;;;;5061976;28;19928;-68
2022/11/26 11:45:20;;;;;;;;;;;8.10;99.90;;;;;;5071289;28;19943;-68
2022/11/26 11:47:49;;;;;;;;;;;8.10;99.90;;;;;;5071528;28;19929;-68
2022/11/26 11:50:24;;;;;;;;;;;8.10;99.90;;;;;;5072196;28;20443;-68
2022/11/26 11:52:59;;;;;;;;;;;8.10;99.90;;;;;;5072599;28;19935;-68
2022/11/26 11:55:28;;;;;;;;;;;8.10;99.90;;;;;;5072119;28;19971;-68
2022/11/26 11:58:08;;;;;;;;;;;8.10;99.90;;;;;;5066060;28;19960;-68
2022/11/26 12:00:46;;;;;;;;;;;8.10;99.90;;;;;;5072570;28;19990;-68
2022/11/26 12:03:30;;;;;;;;;;;8.10;99.90;;;;;;5069240;28;19927;-68
2022/11/26 12:05:56;;;;;;;;;;;8.10;99.90;;;;;;5070265;28;19932;-68
2022/11/26 12:08:29;;;;;;;;;;;8.10;99.90;;;;;;5080959;28;20046;-68
2022/11/26 12:11:08;;;;;;;;;;;8.10;99.90;;;;;;5088684;28;19928;-68
2022/11/26 12:13:40;;;;;;;;;;;8.10;99.90;;;;;;5077567;28;21289;-68
2022/11/26 12:16:08;;;;;;;;;;;8.10;99.90;;;;;;5067053;28;19951;-68
2022/11/26 12:18:46;;;;;;;;;;;8.20;99.90;;;;;;5076260;28;19928;-68
2022/11/26 12:21:13;;;;;;;;;;;8.20;99.90;;;;;;5070978;28;19927;-68
2022/11/26 12:23:51;;;;;;;;;;;8.20;99.90;;;;;;5071955;28;19951;-68
2022/11/26 12:26:26;;;;;;;;;;;8.20;99.90;;;;;;5073924;28;20349;-68
2022/11/26 12:28:55;;;;;;;;;;;8.20;99.90;;;;;;5084060;28;19920;-68
2022/11/26 12:31:27;;;;;;;;;;;8.20;99.90;;;;;;5073814;28;19928;-68
2022/11/26 12:33:59;;;;;;;;;;;8.20;99.90;;;;;;5085664;28;20046;-68
2022/11/26 12:36:28;;;;;;;;;;;8.30;99.90;;;;;;5078068;28;19967;-68
2022/11/26 12:39:16;;;;;;;;;;;8.30;99.90;;;;;;5074191;28;20370;-68
2022/11/26 12:41:54;;;;;;;;;;;8.30;99.90;;;;;;5077527;28;19924;-68
2022/11/26 12:44:36;;;;;;;;;;;8.30;99.90;;;;;;5072889;28;19920;-68
2022/11/26 12:47:16;;;;;;;;;;;8.30;99.90;;;;;;5067326;28;19930;-68
2022/11/26 12:49:46;;;;;;;;;;;8.30;99.90;;;;;;5068301;28;19931;-68
2022/11/26 12:52:29;;;;;;;;;;;8.30;99.90;;;;;;5071519;28;20385;-68
2022/11/26 12:55:01;;;;;;;;;;;8.30;99.90;;;;;;5071525;28;19921;-68
2022/11/26 12:57:32;;;;;;;;;;;8.40;99.90;;;;;;5068070;28;19964;-68
2022/11/26 13:00:04;;;;;;;;;;;8.40;99.90;;;;;;5070930;28;19966;-68
2022/11/26 13:02:33;;;;;;;;;;;8.40;99.90;;;;;;5071553;28;19925;-68
2022/11/26 13:04:58;;;;;;;;;;;8.40;99.90;;;;;;5067954;28;19925;-68
2022/11/26 13:07:33;;;;;;;;;;;8.40;99.90;;;;;;5071273;28;19920;-68
2022/11/26 13:10:10;;;;;;;;;;;8.40;99.90;;;;;;5069756;28;20019;-68
2022/11/26 13:12:59;;;;;;;;;;;8.40;99.90;;;;;;5062791;28;20027;-68
2022/11/26 13:15:33;;;;;;;;;;;8.40;99.90;;;;;;5065077;28;20316;-68
2022/11/26 13:17:59;;;;;;;;;;;8.30;99.90;;;;;;5070141;28;20340;-68
2022/11/26 13:20:33;;;;;;;;;;;8.30;99.90;;;;;;5071376;28;19924;-68
2022/11/26 13:23:14;;;;;;;;;;;8.30;99.90;;;;;;5072292;28;20265;-68
2022/11/26 13:25:53;;;;;;;;;;;8.30;99.90;;;;;;5070280;28;20320;-68
2022/11/26 13:28:22;;;;;;;;;;;8.30;99.90;;;;;;5072143;28;19956;-68
2022/11/26 13:30:47;;;;;;;;;;;8.30;99.90;;;;;;5076854;28;20035;-68
2022/11/26 13:33:25;;;;;;;;;;;8.30;99.90;;;;;;5071386;28;20017;-68
2022/11/26 13:59:24;;;;;;;;;;;8.10;99.90;;;;;;5070766;28;19927;-68
2022/11/26 14:01:50;;;;;;;;;;;8.10;99.90;;;;;;5085713;28;19920;-68
2022/11/26 14:04:21;;;;;;;;;;;8.10;99.90;;;;;;5050879;28;20562;-68
2022/11/26 14:07:02;;;;;;;;;;;8.00;99.90;;;;;;5085060;28;19920;-68
2022/11/26 14:09:45;;;;;;;;;;;8.00;99.90;;;;;;5058056;28;20382;-68
2022/11/26 14:12:11;;;;;;;;;;;8.00;99.90;;;;;;5062511;28;19924;-68
2022/11/26 14:14:37;;;;;;;;;;;7.90;99.90;;;;;;5068377;28;19924;-68
2022/11/26 14:17:03;;;;;;;;;;;8.00;99.90;;;;;;5047927;28;19931;-68
2022/11/26 14:19:43;;;;;;;;;;;7.90;99.90;;;;;;5070787;28;19924;-68
2022/11/26 14:22:18;;;;;;;;;;;7.90;99.90;;;;;;5070546;28;19921;-68
2022/11/26 14:24:47;;;;;;;;;;;7.90;99.90;;;;;;5070500;28;20482;-68
2022/11/26 14:27:13;;;;;;;;;;;7.80;99.90;;;;;;5054112;28;20383;-69
2022/11/26 14:29:38;;;;;;;;;;;7.80;99.90;;;;;;5068163;28;19924;-68
2022/11/26 14:32:07;;;;;;;;;;;7.70;99.90;;;;;;5068361;28;19927;-68
2022/11/26 14:34:38;;;;;;;;;;;7.70;99.90;;;;;;5069058;28;19920;-68
2022/11/26 14:37:11;;;;;;;;;;;7.70;99.90;;;;;;5075205;28;19931;-68
2022/11/26 14:39:37;;;;;;;;;;;7.60;99.90;;;;;;5069827;28;20069;-68
2022/11/26 14:42:02;;;;;;;;;;;7.60;99.90;;;;;;5074698;28;20011;-68
2022/11/26 14:44:28;;;;;;;;;;;7.60;99.90;;;;;;5091994;28;19924;-68
2022/11/26 14:46:55;;;;;;;;;;;7.60;99.90;;;;;;5066613;28;19920;-69
2022/11/26 14:49:33;;;;;;;;;;;7.60;99.90;;;;;;5061855;28;20011;-69
2022/11/26 14:51:59;;;;;;;;;;;7.60;99.90;;;;;;5066648;28;19925;-69
2022/11/26 14:54:31;;;;;;;;;;;7.50;99.90;;;;;;5068369;28;19927;-69
2022/11/26 14:57:01;;;;;;;;;;;7.50;99.90;;;;;;5062898;28;19920;-69
2022/11/26 14:59:27;;;;;;;;;;;7.50;99.90;;;;;;5057993;28;19989;-69
2022/11/26 15:01:52;;;;;;;;;;;7.50;99.90;;;;;;5067109;28;20054;-69